Time;durP1;ratioP1;P1;durP2;ratioP2;P2;SDS_P1;SDS_P2;PMS_P1;PMS_P2;Temp;Humidity;BMP_temperature;BMP_pressure;BME280_temperature;BME280_humidity;BME280_pressure;Samples;Min_cycle;Max_cycle;Signal;HPM_P1;HPM_P2
2022/11/13 00:02:07;;;;;;;;;43.50;38.50;;;;;12.21;79.86;101844.47;4986421;28;45363;-60
2022/11/13 00:04:33;;;;;;;;;52.00;42.75;;;;;12.19;79.70;101830.94;5005976;28;45422;-55
2022/11/13 00:06:58;;;;;;;;;51.50;41.50;;;;;11.97;79.42;101799.75;5010862;28;45616;-56
2022/11/13 00:09:24;;;;;;;;;42.00;36.75;;;;;12.16;79.61;101827.69;4995686;28;46037;-54
2022/11/13 00:11:49;;;;;;;;;47.50;40.00;;;;;12.17;79.69;101830.25;4996505;28;45759;-55
2022/11/13 00:14:15;;;;;;;;;46.50;39.00;;;;;12.19;79.36;101838.31;4997188;28;45335;-54
2022/11/13 00:16:40;;;;;;;;;46.50;37.00;;;;;12.17;79.28;101838.50;4998027;28;45337;-51
2022/11/13 00:19:06;;;;;;;;;46.50;38.00;;;;;12.11;79.53;101820.03;4996898;28;45985;-51
2022/11/13 00:21:32;;;;;;;;;37.25;34.50;;;;;12.03;79.27;101809.13;4939824;28;45582;-55
2022/11/13 00:23:57;;;;;;;;;44.75;34.25;;;;;12.07;79.36;101805.81;4996932;28;45426;-57
2022/11/13 00:26:27;;;;;;;;;44.50;35.25;;;;;12.07;79.46;101805.81;4997465;28;45260;-53
2022/11/13 00:28:57;;;;;;;;;38.40;35.40;;;;;12.13;78.91;101815.19;4996103;28;45848;-55
2022/11/13 00:31:23;;;;;;;;;44.60;38.00;;;;;12.13;79.22;101819.84;4997113;28;45410;-49
2022/11/13 00:33:49;;;;;;;;;48.25;38.00;;;;;12.09;78.85;101804.75;4923873;28;45361;-51
2022/11/13 00:36:25;;;;;;;;;52.75;43.00;;;;;12.11;79.48;101805.44;5011763;28;45404;-53
2022/11/13 00:38:50;;;;;;;;;48.80;39.20;;;;;12.11;79.29;101810.94;4997100;28;46155;-51
2022/11/13 00:41:16;;;;;;;;;45.25;37.25;;;;;12.01;79.58;101789.22;4995673;28;45340;-55
2022/11/13 00:43:41;;;;;;;;;41.00;37.00;;;;;12.10;79.26;101809.22;4996146;28;45362;-54
2022/11/13 00:46:07;;;;;;;;;44.75;36.25;;;;;12.09;79.64;101805.63;4995782;28;45547;-53
2022/11/13 00:48:33;;;;;;;;;44.00;37.75;;;;;12.07;79.39;101803.06;4995355;28;46499;-51
2022/11/13 00:50:59;;;;;;;;;46.00;37.60;;;;;12.07;79.50;101794.78;4997203;28;45484;-51
2022/11/13 00:53:24;;;;;;;;;37.75;34.00;;;;;12.07;79.32;101794.78;4997336;28;45458;-52
2022/11/13 00:55:50;;;;;;;;;42.25;33.75;;;;;11.99;79.37;101778.38;4995830;28;45356;-55
2022/11/13 00:58:15;;;;;;;;;39.50;34.75;;;;;11.53;79.14;101700.69;4996571;28;45531;-55
2022/11/13 01:00:42;;;;;;;;;39.25;35.00;;;;;12.02;79.47;101780.72;4996449;28;45501;-51
2022/11/13 01:03:07;;;;;;;;;38.80;34.00;;;;;11.81;79.18;101737.59;4996890;28;45403;-52
2022/11/13 01:05:39;;;;;;;;;38.75;34.75;;;;;12.03;79.33;101776.09;4986146;28;45292;-53
2022/11/13 01:08:04;;;;;;;;;37.20;33.20;;;;;12.04;79.65;101772.31;4993038;28;45716;-51
2022/11/13 01:10:31;;;;;;;;;37.50;33.50;;;;;12.03;79.34;101765.09;5013643;28;45489;-52
2022/11/13 01:12:56;;;;;;;;;36.60;33.80;;;;;12.03;79.30;101754.09;5016684;28;45525;-55
2022/11/13 01:15:22;;;;;;;;;36.00;31.75;;;;;12.01;79.51;101743.25;5016403;28;45326;-53
2022/11/13 01:17:47;;;;;;;;;37.50;32.75;;;;;12.01;79.59;101746.03;5000428;28;45393;-53
2022/11/13 01:20:13;;;;;;;;;37.75;34.75;;;;;12.00;79.49;101738.81;4995573;28;45487;-54
2022/11/13 01:22:38;;;;;;;;;30.25;26.75;;;;;11.99;79.51;101742.63;4996251;28;45458;-51
2022/11/13 01:25:04;;;;;;;;;37.50;33.50;;;;;11.97;79.40;101732.88;4996923;28;45865;-51
2022/11/13 01:27:30;;;;;;;;;37.75;32.75;;;;;11.94;79.39;101728.59;4995956;28;47155;-54
2022/11/13 01:29:55;;;;;;;;;51.00;39.50;;;;;11.99;78.99;101737.13;4995413;28;45404;-54
2022/11/13 01:32:21;;;;;;;;;46.50;41.00;;;;;11.95;79.06;101723.97;4996771;28;45420;-50
2022/11/13 01:34:46;;;;;;;;;49.75;42.75;;;;;11.97;78.84;101738.38;4996545;28;45325;-53
2022/11/13 01:37:12;;;;;;;;;57.25;45.50;;;;;11.88;78.68;101718.38;4996305;28;45312;-51
2022/11/13 01:39:37;;;;;;;;;57.25;46.75;;;;;11.95;78.84;101740.47;4996251;28;45334;-52
2022/11/13 01:42:03;;;;;;;;;58.00;47.00;;;;;11.93;78.63;101727.75;4996790;28;45843;-51
2022/11/13 01:45:24;;;;;;;;;63.75;49.00;;;;;11.91;78.68;101735.34;4996503;28;45578;-49
2022/11/13 01:47:49;;;;;;;;;60.60;48.20;;;;;11.83;78.57;101720.88;4953990;28;45536;-55
2022/11/13 01:50:15;;;;;;;;;57.25;47.25;;;;;11.89;78.51;101731.94;4990373;28;45530;-53
2022/11/13 01:52:40;;;;;;;;;61.75;47.00;;;;;11.84;78.41;101722.59;4996273;28;45406;-52
2022/11/13 01:55:12;;;;;;;;;54.00;44.25;;;;;11.62;78.20;101687.69;4996295;28;45513;-51
2022/11/13 01:57:38;;;;;;;;;60.25;48.25;;;;;11.62;78.52;101686.81;4978558;28;46888;-53
2022/11/13 02:00:07;;;;;;;;;53.25;45.75;;;;;11.85;78.48;101730.63;4995954;28;45381;-51
2022/11/13 02:02:32;;;;;;;;;59.80;48.80;;;;;11.85;78.38;101718.78;4996167;28;45754;-53
2022/11/13 02:04:58;;;;;;;;;57.25;47.00;;;;;11.84;78.73;101717.94;4995962;28;45339;-53
2022/11/13 02:07:23;;;;;;;;;58.75;49.25;;;;;11.77;78.69;101698.63;4998153;28;45406;-52
2022/11/13 02:09:50;;;;;;;;;56.00;46.00;;;;;11.76;78.50;101690.56;5014547;28;45376;-50
2022/11/13 02:12:20;;;;;;;;;58.60;47.80;;;;;11.76;78.35;101696.94;5015772;28;45488;-52
2022/11/13 02:14:48;;;;;;;;;59.50;46.75;;;;;11.15;78.33;101590.97;5014470;28;45336;-52
2022/11/13 02:17:19;;;;;;;;;56.20;46.60;;;;;11.47;78.66;101643.75;4997867;28;45683;-53
2022/11/13 02:19:47;;;;;;;;;60.40;46.20;;;;;11.78;78.68;101683.81;4998354;28;45315;-54
2022/11/13 02:22:25;;;;;;;;;55.40;44.60;;;;;11.75;79.08;101699.88;5015482;28;45410;-54
2022/11/13 02:24:50;;;;;;;;;56.00;46.25;;;;;11.28;78.71;101637.00;5014402;28;45496;-53
2022/11/13 02:27:25;;;;;;;;;56.50;45.50;;;;;11.50;78.54;101665.38;5013524;28;45954;-50
2022/11/13 02:29:51;;;;;;;;;60.20;46.60;;;;;11.74;78.73;101707.25;4951215;28;45948;-54
2022/11/13 02:32:16;;;;;;;;;54.75;46.75;;;;;11.74;78.73;101698.16;4976216;28;45644;-52
2022/11/13 02:34:42;;;;;;;;;60.75;46.25;;;;;11.72;78.65;101692.84;4976117;28;45384;-54
2022/11/13 02:37:07;;;;;;;;;54.75;43.25;;;;;11.51;78.39;101660.69;4974669;28;46186;-51
2022/11/13 02:39:32;;;;;;;;;57.00;47.25;;;;;11.48;78.25;101658.34;4975640;28;45311;-50
2022/11/13 02:41:58;;;;;;;;;60.25;46.50;;;;;11.71;77.98;101693.91;4974516;28;45503;-52
2022/11/13 02:44:23;;;;;;;;;55.25;44.75;;;;;11.71;78.42;101693.03;4975733;28;45347;-51
2022/11/13 02:46:49;;;;;;;;;49.75;41.75;;;;;11.69;78.41;101692.41;4975689;28;46031;-54
2022/11/13 02:49:14;;;;;;;;;53.50;43.25;;;;;11.68;78.31;101691.53;4975646;28;45375;-55
2022/11/13 02:51:40;;;;;;;;;54.00;42.75;;;;;11.44;78.08;101644.16;4975452;28;45380;-52
2022/11/13 02:54:05;;;;;;;;;60.00;45.50;;;;;11.63;78.53;101669.28;4976049;28;45434;-51
2022/11/13 02:56:31;;;;;;;;;57.00;48.00;;;;;11.46;78.20;101643.94;4973932;28;46531;-50
2022/11/13 02:58:57;;;;;;;;;56.25;45.50;;;;;11.62;78.31;101684.94;4975764;28;45206;-51
2022/11/13 03:01:22;;;;;;;;;52.50;41.00;;;;;11.62;78.24;101681.31;4975077;28;45336;-53
2022/11/13 03:03:47;;;;;;;;;55.00;44.50;;;;;11.58;78.39;101685.53;4991067;28;45545;-50
2022/11/13 03:06:13;;;;;;;;;46.00;38.00;;;;;11.46;78.48;101663.16;4975495;28;46459;-52
2022/11/13 03:08:38;;;;;;;;;48.75;38.75;;;;;11.60;78.40;101683.41;4995794;28;45277;-51
2022/11/13 03:11:08;;;;;;;;;49.50;41.00;;;;;11.59;78.60;101690.81;5014808;28;45276;-54
2022/11/13 03:13:34;;;;;;;;;51.00;39.80;;;;;11.55;78.26;101674.91;5013335;28;45420;-51
2022/11/13 03:16:12;;;;;;;;;44.75;38.00;;;;;11.57;78.68;101687.41;5014568;28;45900;-55
2022/11/13 03:18:38;;;;;;;;;39.60;35.80;;;;;11.56;78.62;101685.72;5014502;28;45518;-53
2022/11/13 03:21:11;;;;;;;;;41.75;37.25;;;;;11.56;78.35;101687.59;5014820;28;45343;-50
2022/11/13 03:23:37;;;;;;;;;34.40;31.20;;;;;11.45;78.28;101673.34;5014583;28;45552;-55
2022/11/13 03:26:07;;;;;;;;;37.80;35.40;;;;;11.52;78.54;101677.00;5014151;28;45587;-53
2022/11/13 03:28:33;;;;;;;;;42.60;32.40;;;;;11.05;78.53;101617.94;5014492;28;45470;-54
2022/11/13 03:30:59;;;;;;;;;35.40;32.40;;;;;11.50;78.77;101676.34;5013280;28;45534;-53
2022/11/13 03:33:24;;;;;;;;;32.00;31.50;;;;;11.46;78.34;101669.53;4998877;28;45827;-54
2022/11/13 03:35:50;;;;;;;;;37.00;35.50;;;;;10.91;78.36;101578.47;5004971;28;46346;-50
2022/11/13 03:38:15;;;;;;;;;39.75;35.25;;;;;11.51;78.65;101671.69;5014400;28;45402;-53
2022/11/13 03:40:41;;;;;;;;;36.75;33.00;;;;;11.44;78.90;101665.28;5014104;28;45534;-53
2022/11/13 03:43:07;;;;;;;;;31.50;30.75;;;;;11.43;79.03;101660.84;5017340;28;45244;-55
2022/11/13 03:45:33;;;;;;;;;30.25;27.00;;;;;11.40;78.74;101648.31;5017819;28;46201;-54
2022/11/13 03:47:58;;;;;;;;;31.25;28.50;;;;;11.45;78.62;101653.22;5017766;28;45219;-54
2022/11/13 03:50:23;;;;;;;;;34.00;31.00;;;;;11.46;78.49;101649.44;5018011;28;45408;-56
2022/11/13 03:52:49;;;;;;;;;35.50;29.75;;;;;11.43;78.45;101655.34;5018141;28;45500;-52
2022/11/13 03:55:15;;;;;;;;;30.75;27.25;;;;;11.43;78.56;101666.31;5016627;28;46506;-54
2022/11/13 03:57:40;;;;;;;;;31.25;28.00;;;;;11.41;78.60;101647.28;5017722;28;45192;-51
2022/11/13 04:00:06;;;;;;;;;36.50;31.00;;;;;11.41;78.40;101655.53;5017941;28;45365;-51
2022/11/13 04:02:31;;;;;;;;;29.00;24.75;;;;;11.41;78.54;101647.28;5017696;28;45368;-52
2022/11/13 04:04:57;;;;;;;;;34.50;31.00;;;;;11.41;78.24;101643.69;5017603;28;46153;-52
2022/11/13 04:07:22;;;;;;;;;30.50;29.50;;;;;11.41;78.28;101644.53;5017476;28;45412;-55
2022/11/13 04:09:48;;;;;;;;;31.00;27.00;;;;;11.41;77.95;101643.69;4998251;28;45430;-55
2022/11/13 04:12:13;;;;;;;;;33.75;28.25;;;;;11.15;78.13;101596.47;4996580;28;45447;-53
2022/11/13 04:14:39;;;;;;;;;33.00;27.50;;;;;11.35;77.96;101642.56;4997489;28;46279;-54
2022/11/13 04:17:04;;;;;;;;;39.00;30.50;;;;;11.36;78.28;101636.00;4997363;28;45442;-52
2022/11/13 04:19:30;;;;;;;;;33.25;27.00;;;;;11.35;78.01;101637.91;4997867;28;45280;-58
2022/11/13 04:21:55;;;;;;;;;25.00;19.75;;;;;11.37;77.69;101640.47;4996097;28;45482;-60
2022/11/13 04:24:21;;;;;;;;;31.25;27.00;;;;;11.17;78.09;101604.53;4997098;28;46573;-52
2022/11/13 04:26:46;;;;;;;;;29.75;27.00;;;;;11.35;77.62;101639.81;4997022;28;45567;-53
2022/11/13 04:29:12;;;;;;;;;30.00;26.00;;;;;11.35;77.48;101637.06;4997431;28;45358;-51
2022/11/13 04:31:37;;;;;;;;;33.75;28.50;;;;;11.35;77.42;101637.06;4997501;28;45329;-54
2022/11/13 04:34:03;;;;;;;;;29.25;27.75;;;;;11.31;77.50;101633.03;4996867;28;46778;-51
2022/11/13 04:36:28;;;;;;;;;30.50;27.50;;;;;11.33;77.89;101633.66;4997069;28;45384;-53
2022/11/13 04:38:53;;;;;;;;;28.50;25.25;;;;;11.31;77.66;101636.59;4997070;28;45549;-52
2022/11/13 04:44:03;;;;;;;;;32.00;28.60;;;;;11.31;77.24;101630.28;4996607;28;45733;-51
2022/11/13 04:46:29;;;;;;;;;30.25;29.75;;;;;11.30;77.82;101625.81;4997225;28;45578;-54
2022/11/13 04:48:54;;;;;;;;;28.50;27.25;;;;;11.06;77.41;101583.91;4995877;28;45346;-55
2022/11/13 04:51:20;;;;;;;;;30.25;30.25;;;;;11.20;77.76;101613.22;4996691;28;45360;-55
2022/11/13 04:53:45;;;;;;;;;35.75;32.00;;;;;11.24;78.00;101624.69;4995789;28;45672;-54
2022/11/13 04:56:11;;;;;;;;;37.50;30.75;;;;;11.25;77.34;101619.00;4996844;28;45280;-52
2022/11/13 04:58:36;;;;;;;;;41.75;33.75;;;;;11.27;77.64;101623.44;4997193;28;45427;-56
2022/11/13 05:01:03;;;;;;;;;35.25;31.75;;;;;11.22;77.42;101624.03;4997030;28;45604;-54
2022/11/13 05:03:28;;;;;;;;;39.20;35.80;;;;;11.18;76.63;101623.59;4996312;28;45941;-52
2022/11/13 05:06:01;;;;;;;;;45.25;37.25;;;;;10.53;77.32;101516.34;4996886;28;45397;-55
2022/11/13 05:08:26;;;;;;;;;39.20;32.60;;;;;11.22;77.13;101624.03;5004279;28;45423;-55
2022/11/13 05:10:52;;;;;;;;;31.50;28.00;;;;;11.16;77.10;101617.41;5016781;28;45375;-53
2022/11/13 05:13:17;;;;;;;;;41.00;37.00;;;;;11.19;77.19;101616.16;5015976;28;46049;-53
2022/11/13 05:15:43;;;;;;;;;46.00;35.00;;;;;11.17;77.41;101612.78;5016168;28;45346;-55
2022/11/13 05:18:08;;;;;;;;;41.50;36.25;;;;;11.15;77.05;101603.88;4990598;28;45511;-55
2022/11/13 05:20:34;;;;;;;;;40.00;35.00;;;;;11.15;77.28;101612.97;5014153;28;45533;-55
2022/11/13 05:22:59;;;;;;;;;41.00;37.25;;;;;11.15;77.07;101614.88;5014118;28;45647;-51
2022/11/13 05:25:25;;;;;;;;;36.00;34.00;;;;;11.15;77.25;101620.38;5016252;28;45355;-54
2022/11/13 05:27:50;;;;;;;;;34.75;34.00;;;;;11.10;77.28;101608.06;5015174;28;45897;-52
2022/11/13 05:30:16;;;;;;;;;46.75;38.00;;;;;10.94;77.09;101583.59;5016628;28;45517;-56
2022/11/13 05:32:41;;;;;;;;;44.00;37.25;;;;;11.11;76.81;101612.50;5015948;28;46238;-56
2022/11/13 05:35:07;;;;;;;;;36.75;33.25;;;;;11.09;77.03;101605.50;5016656;28;45388;-53
2022/11/13 05:37:32;;;;;;;;;37.00;29.75;;;;;11.10;76.76;101613.56;5016151;28;45382;-53
2022/11/13 05:39:58;;;;;;;;;51.75;39.50;;;;;10.93;76.73;101581.84;5016452;28;45591;-55
2022/11/13 05:42:23;;;;;;;;;47.50;41.75;;;;;11.08;76.95;101609.28;5015661;28;46183;-55
2022/11/13 05:44:49;;;;;;;;;56.50;45.25;;;;;10.99;76.57;101600.31;5016366;28;45345;-56
2022/11/13 05:47:14;;;;;;;;;53.75;45.25;;;;;11.00;76.24;101604.78;4998404;28;45349;-54
2022/11/13 05:49:40;;;;;;;;;51.50;43.50;;;;;10.99;76.53;101597.56;5016197;28;45282;-53
2022/11/13 05:52:05;;;;;;;;;55.50;44.75;;;;;10.88;76.83;101581.63;5015909;28;46045;-54
2022/11/13 05:54:31;;;;;;;;;58.50;48.75;;;;;10.96;76.56;101595.22;5015904;28;45430;-55
2022/11/13 05:56:56;;;;;;;;;53.50;43.00;;;;;10.95;76.40;101588.88;5016057;28;45307;-54
2022/11/13 05:59:22;;;;;;;;;49.25;38.25;;;;;10.96;76.60;101581.50;5016098;28;45552;-53
2022/11/13 06:01:47;;;;;;;;;52.00;44.50;;;;;10.71;76.12;101527.78;5015481;28;45674;-54
2022/11/13 06:04:13;;;;;;;;;47.25;41.00;;;;;10.95;76.42;101566.88;5014194;28;45879;-51
2022/11/13 06:06:38;;;;;;;;;48.50;39.25;;;;;10.94;76.57;101565.19;5015374;28;45257;-54
2022/11/13 06:09:04;;;;;;;;;46.50;40.00;;;;;10.62;76.14;101506.94;5006228;28;45532;-52
2022/11/13 06:11:30;;;;;;;;;41.75;36.75;;;;;10.93;76.29;101566.25;4995773;28;46071;-55
2022/11/13 06:13:56;;;;;;;;;38.50;35.25;;;;;10.89;76.38;101553.09;4995583;28;45295;-55
2022/11/13 06:16:29;;;;;;;;;46.00;38.00;;;;;10.90;76.69;101555.66;4995721;28;45329;-51
2022/11/13 06:18:56;;;;;;;;;46.20;36.80;;;;;10.88;77.15;101551.41;4994618;28;45925;-54
2022/11/13 06:21:23;;;;;;;;;23.00;22.00;;;;;10.89;76.56;101553.94;4995353;28;45992;-54
2022/11/13 06:23:48;;;;;;;;;36.00;32.00;;;;;10.90;76.99;101552.91;4995556;28;45387;-55
2022/11/13 06:26:16;;;;;;;;;35.50;33.00;;;;;10.89;76.88;101544.84;4995724;28;45297;-55
2022/11/13 06:28:42;;;;;;;;;34.20;27.00;;;;;10.89;76.56;101547.59;4993960;28;45361;-55
2022/11/13 06:31:21;;;;;;;;;33.80;30.00;;;;;10.33;76.96;101458.44;4995427;28;45482;-51
2022/11/13 06:33:47;;;;;;;;;31.60;29.40;;;;;10.62;76.09;101504.22;4994079;28;45407;-55
2022/11/13 06:36:22;;;;;;;;;31.50;25.75;;;;;10.81;76.86;101543.94;4995703;28;45305;-52
2022/11/13 06:38:48;;;;;;;;;26.80;25.80;;;;;10.76;76.30;101548.28;4994122;28;45259;-54
2022/11/13 06:41:15;;;;;;;;;30.60;28.80;;;;;10.73;76.72;101546.78;4995176;28;46595;-52
2022/11/13 06:43:40;;;;;;;;;26.20;23.40;;;;;10.62;76.28;101528.09;4994748;28;45205;-54
2022/11/13 06:46:13;;;;;;;;;24.50;21.75;;;;;10.75;76.63;101549.34;4995562;28;45374;-52
2022/11/13 06:48:39;;;;;;;;;26.00;24.60;;;;;10.75;76.10;101549.34;4993958;28;45403;-53
2022/11/13 06:51:05;;;;;;;;;22.75;21.25;;;;;10.49;76.69;101506.81;4994927;28;45402;-54
2022/11/13 06:53:31;;;;;;;;;25.20;22.20;;;;;10.69;76.01;101540.00;4994879;28;45391;-52
2022/11/13 06:55:57;;;;;;;;;25.00;24.00;;;;;10.69;75.88;101540.81;4995226;28;45332;-55
2022/11/13 06:58:22;;;;;;;;;25.25;22.50;;;;;10.53;76.30;101510.88;4995062;28;45644;-53
2022/11/13 07:00:48;;;;;;;;;25.25;23.25;;;;;10.64;75.72;101531.47;4994752;28;45410;-55
2022/11/13 07:03:16;;;;;;;;;28.75;23.25;;;;;10.69;75.71;101551.81;4966833;28;45489;-52
2022/11/13 07:05:42;;;;;;;;;25.20;20.20;;;;;10.72;75.77;101550.56;4990573;28;45758;-55
2022/11/13 07:08:07;;;;;;;;;22.25;20.00;;;;;10.73;75.55;101535.78;4995858;28;45240;-53
2022/11/13 07:10:33;;;;;;;;;25.25;24.75;;;;;10.74;76.00;101534.78;5014732;28;46220;-51
2022/11/13 07:12:59;;;;;;;;;25.25;21.50;;;;;10.76;75.64;101534.56;5014027;28;45226;-55
2022/11/13 07:15:25;;;;;;;;;30.40;24.00;;;;;10.74;75.75;101533.91;5014649;28;45177;-52
2022/11/13 07:17:50;;;;;;;;;25.00;19.50;;;;;10.67;75.70;101529.19;5015882;28;45593;-55
2022/11/13 07:20:15;;;;;;;;;23.00;21.00;;;;;10.77;75.42;101541.78;5016379;28;47027;-54
2022/11/13 07:22:41;;;;;;;;;23.75;23.25;;;;;10.76;75.27;101538.16;5017948;28;45265;-52
2022/11/13 07:25:07;;;;;;;;;25.25;21.75;;;;;10.55;75.51;101500.53;5017956;28;45373;-52
2022/11/13 07:27:32;;;;;;;;;23.50;21.75;;;;;10.75;75.46;101543.84;5018084;28;45428;-51
2022/11/13 07:29:58;;;;;;;;;17.75;17.00;;;;;10.78;75.37;101546.22;5017846;28;46412;-53
2022/11/13 07:32:23;;;;;;;;;23.75;23.25;;;;;10.77;74.82;101550.00;5017838;28;45308;-52
2022/11/13 07:34:49;;;;;;;;;20.75;19.00;;;;;10.76;74.67;101545.53;5018523;28;45862;-52
2022/11/13 07:37:14;;;;;;;;;21.25;18.25;;;;;10.76;75.20;101543.66;5017755;28;45411;-56
2022/11/13 07:39:40;;;;;;;;;27.25;20.50;;;;;10.74;74.09;101548.50;5016188;28;48333;-56
2022/11/13 07:42:05;;;;;;;;;19.75;19.75;;;;;10.73;74.73;101546.78;5017644;28;45351;-56
2022/11/13 07:44:33;;;;;;;;;21.25;18.50;;;;;10.69;74.45;101534.50;5016739;28;45387;-57
2022/11/13 07:46:59;;;;;;;;;22.40;20.80;;;;;10.75;74.51;101541.97;5016904;28;45506;-55
2022/11/13 07:49:24;;;;;;;;;21.80;20.80;;;;;10.77;74.17;101533.53;5017252;28;46446;-54
2022/11/13 07:51:50;;;;;;;;;24.25;21.50;;;;;10.69;73.76;101524.34;5016392;28;45348;-56
2022/11/13 07:54:15;;;;;;;;;18.00;18.00;;;;;10.78;74.37;101521.50;5016251;28;45472;-52
2022/11/13 07:56:41;;;;;;;;;24.25;23.25;;;;;10.81;73.97;101526.59;5018077;28;45364;-52
2022/11/13 07:59:07;;;;;;;;;21.00;19.00;;;;;10.54;73.75;101483.25;5017536;28;46088;-55
2022/11/13 08:01:32;;;;;;;;;17.80;15.60;;;;;10.80;73.62;101524.91;5015840;28;45483;-56
2022/11/13 08:03:58;;;;;;;;;23.00;19.75;;;;;10.81;73.91;101526.59;5017496;28;45406;-56
2022/11/13 08:06:26;;;;;;;;;29.75;23.50;;;;;10.79;73.58;101514.97;5017812;28;45417;-56
2022/11/13 08:08:51;;;;;;;;;22.20;18.80;;;;;10.69;74.36;101496.91;5009408;28;45592;-55
2022/11/13 08:11:17;;;;;;;;;23.75;22.50;;;;;10.84;74.22;101513.31;4996140;28;45348;-55
2022/11/13 08:13:42;;;;;;;;;25.00;23.50;;;;;10.86;73.89;101515.88;4997276;28;45450;-51
2022/11/13 08:16:08;;;;;;;;;20.50;19.00;;;;;10.84;73.84;101516.06;4997912;28;45250;-53
2022/11/13 08:18:33;;;;;;;;;22.00;20.50;;;;;10.67;73.93;101477.03;4997200;28;46062;-50
2022/11/13 08:21:03;;;;;;;;;27.00;24.25;;;;;10.84;73.76;101507.84;4996063;28;45681;-52
2022/11/13 08:23:29;;;;;;;;;20.40;17.60;;;;;10.89;73.77;101503.66;4979559;28;45257;-54
2022/11/13 08:25:54;;;;;;;;;23.20;22.40;;;;;10.87;73.58;101498.34;4979985;28;45550;-56
2022/11/13 08:28:20;;;;;;;;;22.75;21.50;;;;;10.91;73.44;101505.16;4996407;28;47291;-56
2022/11/13 08:30:45;;;;;;;;;21.25;19.75;;;;;10.88;73.73;101502.81;4997245;28;45371;-55
2022/11/13 08:33:11;;;;;;;;;24.25;21.50;;;;;10.69;73.63;101476.84;4996134;28;45493;-55
2022/11/13 08:35:36;;;;;;;;;22.25;18.75;;;;;10.55;73.32;101451.13;4997300;28;45473;-55
2022/11/13 08:38:03;;;;;;;;;23.25;23.25;;;;;10.81;73.69;101489.00;4997384;28;46229;-55
2022/11/13 08:40:28;;;;;;;;;23.00;20.80;;;;;10.85;73.29;101497.72;4996901;28;45415;-49
2022/11/13 08:43:01;;;;;;;;;23.25;22.75;;;;;10.84;73.12;101488.59;4996949;28;45425;-52
2022/11/13 08:45:26;;;;;;;;;25.80;24.60;;;;;10.86;73.67;101488.44;4997286;28;45412;-53
2022/11/13 08:47:52;;;;;;;;;25.50;21.25;;;;;10.80;73.40;101476.34;4997108;28;45411;-55
2022/11/13 08:50:17;;;;;;;;;24.00;21.00;;;;;10.54;73.06;101447.56;4996904;28;45616;-54
2022/11/13 08:52:43;;;;;;;;;22.25;22.00;;;;;10.83;73.71;101486.06;4996801;28;45724;-54
2022/11/13 08:55:08;;;;;;;;;29.75;25.00;;;;;10.82;73.62;101485.22;4924433;28;45718;-49
2022/11/13 08:57:34;;;;;;;;;31.75;26.75;;;;;10.81;73.30;101482.66;4986054;28;46968;-53
2022/11/13 09:00:00;;;;;;;;;24.00;23.00;;;;;10.80;73.48;101480.97;4952686;28;45583;-54
2022/11/13 09:02:26;;;;;;;;;10.20;5.60;;;;;10.81;73.10;101475.28;4977354;28;45341;-50
2022/11/13 09:04:51;;;;;;;;;26.75;23.25;;;;;10.82;73.46;101467.88;4992225;28;45533;-49
2022/11/13 09:07:17;;;;;;;;;30.25;29.25;;;;;10.82;72.96;101468.75;4995164;28;46227;-50
2022/11/13 09:09:43;;;;;;;;;25.50;25.25;;;;;10.80;74.07;101461.75;5009501;28;45656;-55
2022/11/13 09:12:08;;;;;;;;;31.75;28.00;;;;;10.84;74.16;101468.56;5012168;28;45938;-57
2022/11/13 09:14:35;;;;;;;;;15.75;13.50;;;;;10.88;73.47;101460.78;4996456;28;45324;-58
2022/11/13 09:17:00;;;;;;;;;28.20;25.20;;;;;10.71;73.81;101433.56;4995071;28;46667;-55
2022/11/13 09:19:26;;;;;;;;;10.75;2.00;;;;;10.87;74.00;101462.66;4995696;28;45350;-52
2022/11/13 09:21:52;;;;;;;;;26.50;23.25;;;;;10.77;73.54;101437.44;4994743;28;45833;-55
2022/11/13 09:24:18;;;;;;;;;24.20;22.60;;;;;10.95;73.19;101458.94;4996103;28;45327;-52
2022/11/13 09:26:43;;;;;;;;;27.25;24.25;;;;;10.66;73.25;101412.19;4996035;28;45746;-54
2022/11/13 09:29:09;;;;;;;;;25.75;24.75;;;;;10.94;73.62;101457.25;4996501;28;45438;-52
2022/11/13 09:31:37;;;;;;;;;21.50;20.00;;;;;10.98;73.62;101459.38;4995599;28;45328;-54
2022/11/13 09:34:02;;;;;;;;;25.80;22.80;;;;;11.03;73.18;101453.28;4996734;28;45508;-57
2022/11/13 09:36:28;;;;;;;;;27.50;26.50;;;;;11.09;73.20;101457.13;4995104;28;48397;-60
2022/11/13 09:38:53;;;;;;;;;21.50;21.25;;;;;11.10;72.62;101448.72;4996008;28;45626;-55
2022/11/13 09:41:41;;;;;;;;;27.75;27.25;;;;;11.04;72.81;101432.19;4995669;28;45394;-54
2022/11/13 09:44:16;;;;;;;;;28.40;23.40;;;;;11.06;73.12;101446.56;4995358;28;45475;-55
2022/11/13 09:46:44;;;;;;;;;27.00;27.00;;;;;10.90;72.70;101415.59;4992206;28;45380;-55
2022/11/13 09:49:16;;;;;;;;;23.80;22.60;;;;;11.08;73.00;101441.72;4983009;28;45411;-54
2022/11/13 09:52:13;;;;;;;;;28.00;26.60;;;;;11.17;72.84;101446.03;4976799;28;45494;-55
2022/11/13 09:54:38;;;;;;;;;28.80;25.40;;;;;11.13;72.70;101436.47;4938348;28;45693;-53
2022/11/13 09:57:25;;;;;;;;;29.25;27.75;;;;;11.22;73.28;101449.00;4977833;28;46450;-52
2022/11/13 10:00:20;;;;;;;;;31.00;25.40;;;;;11.28;73.17;101439.13;4982257;28;45421;-51
2022/11/13 10:03:10;;;;;;;;;29.40;28.20;;;;;11.30;72.97;101436.19;4970374;28;45445;-50
2022/11/13 10:05:38;;;;;;;;;29.60;26.60;;;;;11.36;72.54;101438.97;4976511;28;45356;-53
2022/11/13 10:08:18;;;;;;;;;32.20;27.40;;;;;11.34;73.03;101424.59;4976272;28;45401;-51
2022/11/13 10:10:54;;;;;;;;;30.00;28.00;;;;;11.42;72.64;101429.06;4995619;28;45494;-55
2022/11/13 10:13:43;;;;;;;;;30.20;27.60;;;;;11.46;72.84;101435.00;4983141;28;45502;-54
2022/11/13 10:16:16;;;;;;;;;35.60;27.60;;;;;11.50;72.40;101428.06;4973422;28;45501;-56
2022/11/13 10:18:41;;;;;;;;;33.20;30.40;;;;;11.54;72.76;101421.13;4991544;28;46253;-54
2022/11/13 10:21:19;;;;;;;;;28.75;27.75;;;;;11.57;72.46;101425.38;4992089;28;45379;-52
2022/11/13 10:23:49;;;;;;;;;29.80;29.40;;;;;11.56;72.18;101410.78;4994518;28;45371;-53
2022/11/13 10:26:16;;;;;;;;;28.60;27.20;;;;;11.70;72.47;101419.97;4999322;28;45466;-53
2022/11/13 10:28:42;;;;;;;;;31.40;25.80;;;;;11.76;72.25;101418.28;5012480;28;47916;-51
2022/11/13 10:31:11;;;;;;;;;24.75;24.75;;;;;11.82;72.49;101413.88;5012962;28;45597;-55
2022/11/13 10:33:36;;;;;;;;;35.00;29.00;;;;;11.85;72.20;101399.72;5012323;28;45404;-50
2022/11/13 10:36:15;;;;;;;;;33.25;28.00;;;;;11.93;72.14;101405.91;5014129;28;45306;-55
2022/11/13 10:38:48;;;;;;;;;30.20;27.60;;;;;11.96;71.75;101403.78;5002412;28;46833;-54
2022/11/13 10:41:18;;;;;;;;;30.20;28.40;;;;;12.01;71.53;101410.34;4992279;28;45396;-54
2022/11/13 10:44:13;;;;;;;;;33.00;27.00;;;;;11.88;71.31;101372.66;4993963;28;45473;-54
2022/11/13 10:46:39;;;;;;;;;26.40;25.40;;;;;12.01;71.43;101379.25;4993667;28;46256;-52
2022/11/13 10:49:18;;;;;;;;;26.25;25.25;;;;;12.17;71.09;101398.19;4992564;28;45914;-52
2022/11/13 10:51:44;;;;;;;;;30.80;26.40;;;;;12.23;70.72;101398.41;5008576;28;45317;-50
2022/11/13 10:54:27;;;;;;;;;33.00;29.00;;;;;12.07;70.93;101356.47;5002734;28;45642;-52
2022/11/13 10:57:03;;;;;;;;;26.00;24.60;;;;;12.30;70.63;101388.25;4992229;28;45654;-53
2022/11/13 10:59:39;;;;;;;;;33.00;25.20;;;;;11.64;70.42;101278.63;4993364;28;45880;-51
2022/11/13 11:02:24;;;;;;;;;32.40;29.40;;;;;12.37;70.23;101377.28;4993758;28;45474;-54
2022/11/13 11:05:03;;;;;;;;;28.80;27.80;;;;;12.45;70.15;101377.91;5012239;28;45797;-55
2022/11/13 11:07:29;;;;;;;;;31.00;28.60;;;;;12.35;70.10;101336.19;5013003;28;45370;-52
2022/11/13 11:09:54;;;;;;;;;32.50;28.50;;;;;12.66;69.65;101366.94;4982947;28;45459;-55
2022/11/13 11:12:22;;;;;;;;;25.25;24.00;;;;;13.46;69.05;101362.44;4973851;28;45271;-54
2022/11/13 11:15:04;;;;;;;;;25.40;23.60;;;;;18.83;56.54;101348.97;4978766;28;45423;-58